Time;durP1;ratioP1;P1;durP2;ratioP2;P2;SDS_P1;SDS_P2;PMS_P1;PMS_P2;Temp;Humidity;BMP_temperature;BMP_pressure;BME280_temperature;BME280_humidity;BME280_pressure;Samples;Min_cycle;Max_cycle;Signal;HPM_P1;HPM_P2
2021/07/28 04:32:59;;;;;;;9.73;7.90;;;17.20;99.90;;;;;;5030963;23;20920;-79
2021/07/28 04:35:25;;;;;;;9.50;8.53;;;17.30;99.90;;;;;;4954732;29;20830;-82
2021/07/28 04:37:50;;;;;;;8.37;7.57;;;17.30;99.90;;;;;;4956118;29;20447;-79
2021/07/28 04:40:16;;;;;;;8.87;7.87;;;17.30;99.90;;;;;;4947397;29;20185;-75
2021/07/28 04:42:42;;;;;;;9.40;8.30;;;17.30;99.90;;;;;;4951670;28;20724;-74
2021/07/28 04:45:08;;;;;;;9.00;7.53;;;17.30;99.90;;;;;;4953485;28;20451;-74
2021/07/28 04:47:34;;;;;;;10.03;9.03;;;17.30;99.90;;;;;;4953307;29;20184;-73
2021/07/28 04:50:00;;;;;;;11.90;9.40;;;17.40;99.90;;;;;;4953308;29;20188;-73
2021/07/28 04:52:25;;;;;;;9.20;7.23;;;17.40;99.90;;;;;;4953089;28;20464;-74
2021/07/28 04:54:52;;;;;;;9.47;8.47;;;17.40;99.90;;;;;;4953523;29;20544;-73
2021/07/28 04:57:18;;;;;;;8.53;7.73;;;17.40;99.90;;;;;;4953163;28;20181;-74
2021/07/28 04:59:44;;;;;;;8.20;7.40;;;17.50;99.90;;;;;;4952867;28;20420;-74
2021/07/28 05:02:09;;;;;;;11.10;7.70;;;17.60;99.90;;;;;;4952417;28;20979;-74
2021/07/28 05:04:35;;;;;;;9.80;8.10;;;17.60;99.90;;;;;;4952998;29;20169;-75
2021/07/28 05:07:00;;;;;;;12.93;8.13;;;17.60;99.90;;;;;;4953094;29;20169;-72
2021/07/28 05:09:26;;;;;;;9.60;7.17;;;17.70;99.90;;;;;;4952968;28;20501;-74
2021/07/28 05:11:51;;;;;;;8.43;7.53;;;17.60;99.90;;;;;;4952620;28;20196;-74
2021/07/28 05:14:17;;;;;;;8.77;7.97;;;17.60;99.90;;;;;;4952814;29;20630;-75
2021/07/28 05:16:42;;;;;;;9.70;8.03;;;17.70;99.90;;;;;;4952964;29;20183;-74
2021/07/28 05:19:08;;;;;;;10.50;7.93;;;17.70;99.90;;;;;;4952823;29;20177;-74
2021/07/28 05:21:33;;;;;;;10.37;7.67;;;17.70;99.90;;;;;;4952870;28;20709;-75
2021/07/28 05:23:59;;;;;;;9.87;6.80;;;17.60;99.90;;;;;;4953016;29;20168;-72
2021/07/28 05:26:24;;;;;;;8.87;6.87;;;17.70;99.90;;;;;;4953104;29;20172;-74
2021/07/28 05:28:50;;;;;;;8.77;7.97;;;17.60;99.90;;;;;;4953018;29;20177;-73
2021/07/28 05:31:15;;;;;;;13.73;7.63;;;17.70;99.90;;;;;;4953296;28;20287;-74
2021/07/28 05:33:42;;;;;;;8.70;7.20;;;17.60;99.90;;;;;;4952886;29;20240;-74
2021/07/28 05:36:08;;;;;;;10.37;7.67;;;17.60;99.90;;;;;;4953337;28;20190;-72
2021/07/28 05:38:34;;;;;;;10.57;7.30;;;17.70;99.90;;;;;;4952833;29;20420;-77
2021/07/28 05:41:02;;;;;;;8.33;7.33;;;17.70;99.90;;;;;;4951622;28;20291;-78
2021/07/28 05:43:27;;;;;;;7.30;6.60;;;17.80;99.90;;;;;;4952975;28;20420;-78
2021/07/28 05:45:53;;;;;;;8.70;7.50;;;17.80;99.90;;;;;;4952864;28;20833;-77
2021/07/28 05:48:18;;;;;;;6.93;6.33;;;17.80;99.90;;;;;;4953039;28;20616;-77
2021/07/28 05:50:44;;;;;;;6.70;6.10;;;17.80;99.90;;;;;;4952498;28;20293;-78
2021/07/28 05:53:09;;;;;;;12.73;7.00;;;17.90;99.90;;;;;;4952970;29;20236;-78
2021/07/28 05:55:35;;;;;;;8.30;6.67;;;17.90;99.90;;;;;;4952543;28;20263;-77
2021/07/28 05:58:01;;;;;;;7.37;6.67;;;17.90;99.90;;;;;;4953048;29;20235;-77
2021/07/28 06:00:27;;;;;;;9.70;7.10;;;17.90;99.90;;;;;;4953042;29;20169;-77
2021/07/28 06:02:52;;;;;;;10.00;7.50;;;18.10;99.90;;;;;;4952972;28;20973;-77
2021/07/28 06:05:18;;;;;;;9.13;7.53;;;18.10;99.90;;;;;;4953167;29;20180;-78
2021/07/28 06:07:43;;;;;;;13.23;9.03;;;18.10;99.90;;;;;;4952852;28;20189;-78
2021/07/28 06:10:09;;;;;;;8.80;7.27;;;18.20;99.90;;;;;;4955528;28;20199;-78
2021/07/28 06:12:35;;;;;;;10.90;7.70;;;18.20;99.90;;;;;;4956223;28;20285;-79
2021/07/28 06:15:01;;;;;;;16.03;8.90;;;18.30;99.90;;;;;;4956563;28;20412;-77
2021/07/28 06:17:26;;;;;;;9.43;8.03;;;18.30;99.90;;;;;;4956226;28;20181;-78
2021/07/28 06:19:52;;;;;;;7.67;6.77;;;18.30;99.90;;;;;;4956226;29;20169;-78
2021/07/28 06:22:17;;;;;;;6.67;5.97;;;18.30;99.90;;;;;;4956190;28;20192;-77
2021/07/28 06:24:43;;;;;;;6.33;5.80;;;18.20;99.90;;;;;;4956305;28;20184;-78
2021/07/28 06:27:08;;;;;;;7.13;6.40;;;18.20;99.90;;;;;;4956104;29;20177;-76
2021/07/28 06:29:34;;;;;;;8.17;7.37;;;18.30;99.90;;;;;;4956372;29;20658;-77
2021/07/28 06:32:00;;;;;;;6.50;5.90;;;18.30;99.90;;;;;;4954627;28;20244;-77
2021/07/28 06:34:25;;;;;;;7.30;6.60;;;18.30;99.90;;;;;;4955652;28;20519;-77
2021/07/28 06:36:51;;;;;;;6.90;6.07;;;18.30;99.90;;;;;;4955979;28;20244;-76
2021/07/28 06:39:17;;;;;;;10.00;5.70;;;18.20;99.90;;;;;;4955937;29;20177;-78
2021/07/28 06:41:42;;;;;;;6.67;6.07;;;18.20;99.90;;;;;;4954199;28;20271;-77
2021/07/28 06:44:08;;;;;;;6.00;5.50;;;18.20;99.90;;;;;;4955738;29;20696;-76
2021/07/28 06:46:33;;;;;;;7.80;6.50;;;18.20;99.90;;;;;;4955485;28;20195;-79
2021/07/28 06:48:59;;;;;;;7.00;6.40;;;18.20;99.90;;;;;;4955779;29;20173;-77
2021/07/28 06:51:24;;;;;;;6.83;6.23;;;18.20;99.90;;;;;;4955342;28;20204;-78
2021/07/28 06:53:50;;;;;;;8.10;6.90;;;18.10;99.90;;;;;;4955542;29;20236;-78
2021/07/28 06:56:15;;;;;;;7.20;6.40;;;18.10;99.90;;;;;;4955655;29;20177;-78
2021/07/28 06:58:41;;;;;;;9.80;6.70;;;18.10;99.90;;;;;;4955364;29;20176;-78
2021/07/28 07:01:07;;;;;;;6.77;5.13;;;18.10;99.90;;;;;;4954006;28;20280;-77
2021/07/28 07:03:34;;;;;;;8.23;6.30;;;18.10;99.90;;;;;;4955373;28;20523;-79
2021/07/28 07:06:00;;;;;;;7.53;6.73;;;18.10;99.90;;;;;;4955494;29;20239;-78
2021/07/28 07:08:25;;;;;;;6.60;6.00;;;18.20;99.90;;;;;;4955005;29;20421;-78
2021/07/28 07:10:53;;;;;;;8.60;6.00;;;18.20;99.90;;;;;;4954994;28;20665;-77
2021/07/28 07:13:18;;;;;;;7.43;6.33;;;18.20;99.90;;;;;;4954868;28;20212;-78
2021/07/28 07:15:44;;;;;;;7.27;6.03;;;18.20;99.90;;;;;;4954873;29;20427;-78
2021/07/28 07:18:09;;;;;;;6.77;5.67;;;18.20;99.90;;;;;;4955067;29;20172;-80
2021/07/28 07:20:35;;;;;;;8.57;5.80;;;18.30;99.90;;;;;;4953731;28;20181;-76
2021/07/28 07:23:00;;;;;;;6.40;5.80;;;18.30;99.90;;;;;;4954900;29;20184;-78
2021/07/28 07:25:26;;;;;;;6.47;5.87;;;18.40;99.90;;;;;;4955494;28;20184;-80
2021/07/28 07:27:51;;;;;;;6.27;5.77;;;18.40;99.90;;;;;;4955205;28;20610;-79
2021/07/28 07:30:17;;;;;;;8.47;6.27;;;18.50;99.90;;;;;;4955130;29;20638;-76
2021/07/28 07:32:42;;;;;;;8.03;7.27;;;18.40;99.90;;;;;;4954848;28;20231;-78
2021/07/28 07:35:08;;;;;;;11.90;6.77;;;18.50;99.90;;;;;;4955058;29;20188;-76
2021/07/28 07:37:34;;;;;;;8.57;6.87;;;18.60;99.90;;;;;;4955139;29;20595;-78
2021/07/28 07:39:59;;;;;;;10.13;7.43;;;18.70;99.90;;;;;;4954594;29;20255;-78
2021/07/28 07:42:25;;;;;;;6.60;6.00;;;18.70;99.90;;;;;;4954748;28;20244;-78
2021/07/28 07:44:53;;;;;;;7.37;6.60;;;18.80;99.90;;;;;;4954754;28;20236;-78
2021/07/28 07:47:18;;;;;;;9.70;6.70;;;18.90;99.90;;;;;;4954819;29;20264;-78
2021/07/28 07:49:44;;;;;;;7.13;6.53;;;18.90;99.90;;;;;;4954675;28;20503;-77
2021/07/28 07:52:09;;;;;;;8.67;6.17;;;19.00;99.90;;;;;;4954402;28;20201;-78
2021/07/28 07:54:35;;;;;;;7.50;5.97;;;19.00;99.90;;;;;;4954898;29;20181;-78
2021/07/28 07:57:01;;;;;;;8.73;6.00;;;18.90;99.90;;;;;;4953656;28;20180;-78
2021/07/28 07:59:27;;;;;;;6.47;5.87;;;18.90;99.90;;;;;;4954247;29;20169;-78
2021/07/28 08:01:52;;;;;;;9.80;6.60;;;18.90;99.90;;;;;;4954320;28;20460;-80
2021/07/28 08:04:21;;;;;;;10.53;7.03;;;18.80;99.90;;;;;;4954477;28;20259;-79
2021/07/28 08:06:46;;;;;;;6.17;5.57;;;18.80;99.90;;;;;;4954582;29;20180;-78
2021/07/28 08:09:12;;;;;;;7.63;6.50;;;18.80;99.90;;;;;;4954210;28;20956;-78
2021/07/28 08:11:38;;;;;;;8.13;6.50;;;18.70;99.90;;;;;;4953880;28;20203;-76
2021/07/28 08:14:03;;;;;;;7.63;5.37;;;18.70;99.90;;;;;;4953992;28;20690;-78
2021/07/28 08:16:29;;;;;;;9.40;6.43;;;18.50;99.90;;;;;;4954323;28;20220;-78
2021/07/28 08:18:55;;;;;;;6.93;6.30;;;18.60;99.90;;;;;;4952921;29;20537;-77
2021/07/28 08:21:20;;;;;;;9.67;7.40;;;18.60;99.90;;;;;;4954240;28;20279;-78
2021/07/28 08:23:47;;;;;;;6.47;5.87;;;18.60;99.90;;;;;;4953982;28;20181;-79
2021/07/28 08:26:13;;;;;;;7.53;6.80;;;18.60;99.90;;;;;;4954282;29;20169;-78
2021/07/28 08:28:40;;;;;;;8.37;6.30;;;18.60;99.90;;;;;;4953823;29;20423;-76
2021/07/28 08:31:06;;;;;;;9.10;6.50;;;18.70;99.90;;;;;;4953611;28;20976;-79
2021/07/28 08:33:32;;;;;;;6.97;6.30;;;18.70;99.90;;;;;;4953532;29;20456;-78
2021/07/28 08:35:58;;;;;;;6.57;5.93;;;18.70;99.90;;;;;;4953999;29;20204;-78
2021/07/28 08:38:25;;;;;;;7.77;6.80;;;18.80;99.90;;;;;;4952533;29;20650;-78
2021/07/28 08:40:58;;;;;;;9.20;6.47;;;18.80;99.90;;;;;;4953729;28;20507;-78
2021/07/28 08:43:29;;;;;;;9.50;6.37;;;18.90;99.90;;;;;;4953757;28;20498;-78
2021/07/28 08:45:58;;;;;;;18.87;6.77;;;18.90;99.90;;;;;;4953709;28;20435;-79
2021/07/28 08:48:24;;;;;;;9.90;6.67;;;18.90;99.90;;;;;;4952237;29;20851;-78
2021/07/28 08:50:53;;;;;;;7.07;6.27;;;18.90;99.90;;;;;;4952305;28;20960;-78
2021/07/28 08:53:18;;;;;;;7.40;6.70;;;18.90;99.90;;;;;;4953572;28;20506;-77
2021/07/28 08:55:45;;;;;;;9.77;6.23;;;19.00;99.90;;;;;;4953501;28;20440;-78
2021/07/28 08:58:15;;;;;;;8.53;6.67;;;19.00;99.90;;;;;;4953535;28;20180;-78
2021/07/28 09:00:45;;;;;;;10.73;6.40;;;19.10;99.90;;;;;;4953368;28;20416;-78
2021/07/28 09:03:11;;;;;;;8.80;7.37;;;19.20;99.90;;;;;;4952157;29;20420;-78
2021/07/28 09:05:42;;;;;;;7.17;6.40;;;19.30;99.90;;;;;;4953538;28;20455;-77
2021/07/28 09:08:40;;;;;;;6.53;5.93;;;19.40;99.90;;;;;;4952215;29;20428;-76
2021/07/28 09:11:08;;;;;;;6.10;5.50;;;19.60;99.90;;;;;;4941828;28;20448;-79
2021/07/28 09:13:35;;;;;;;6.27;5.10;;;19.70;99.90;;;;;;4953382;29;20476;-79
2021/07/28 09:16:05;;;;;;;8.53;6.87;;;19.70;99.90;;;;;;4954330;28;20412;-79
2021/07/28 09:18:36;;;;;;;8.90;6.13;;;19.90;99.90;;;;;;4953807;28;20411;-77
2021/07/28 09:21:24;;;;;;;6.33;5.37;;;20.10;99.90;;;;;;4953629;28;20428;-77
2021/07/28 09:24:14;;;;;;;6.40;5.80;;;20.40;99.90;;;;;;4953400;28;20416;-78
2021/07/28 09:26:47;;;;;;;5.87;5.30;;;20.70;99.90;;;;;;4953348;28;20416;-77
2021/07/28 09:29:28;;;;;;;6.83;5.73;;;21.00;99.90;;;;;;4952510;29;20435;-78
2021/07/28 09:31:56;;;;;;;6.67;5.50;;;21.30;99.90;;;;;;4953258;28;20463;-78
2021/07/28 09:34:21;;;;;;;8.40;5.40;;;21.50;99.90;;;;;;4951934;29;20468;-78
2021/07/28 09:36:48;;;;;;;5.70;5.20;;;21.70;99.90;;;;;;4953305;29;20413;-79
2021/07/28 09:39:32;;;;;;;5.50;5.00;;;21.90;99.90;;;;;;4953057;28;20168;-78
2021/07/28 09:41:59;;;;;;;14.60;5.63;;;21.90;99.90;;;;;;4953197;28;20773;-78
2021/07/28 09:44:32;;;;;;;5.07;4.60;;;21.90;99.90;;;;;;4954638;28;20515;-80
2021/07/28 09:47:06;;;;;;;7.90;5.50;;;21.80;99.90;;;;;;4957207;28;20412;-78
2021/07/28 09:49:32;;;;;;;7.70;5.40;;;21.70;99.90;;;;;;4956974;29;20512;-79
2021/07/28 09:51:58;;;;;;;6.07;5.47;;;21.90;99.90;;;;;;4955674;28;20519;-79
2021/07/28 09:54:29;;;;;;;8.73;5.53;;;22.10;99.90;;;;;;4956847;28;20459;-78
2021/07/28 09:56:56;;;;;;;5.83;5.33;;;22.50;99.90;;;;;;4957122;28;20169;-78
2021/07/28 09:59:22;;;;;;;6.43;4.77;;;22.70;99.90;;;;;;4956980;29;20423;-77
2021/07/28 10:01:48;;;;;;;5.90;5.30;;;22.60;99.90;;;;;;4956856;28;20435;-79
2021/07/28 10:04:15;;;;;;;6.40;5.20;;;22.60;99.90;;;;;;4958026;29;20444;-79
2021/07/28 10:06:43;;;;;;;7.23;5.33;;;22.90;99.90;;;;;;4955867;29;20503;-79
2021/07/28 10:09:16;;;;;;;5.97;5.40;;;23.00;99.90;;;;;;4956914;29;20416;-78
2021/07/28 10:11:46;;;;;;;5.17;4.67;;;23.20;99.90;;;;;;4956721;28;20440;-79
2021/07/28 10:14:15;;;;;;;5.00;4.50;;;23.20;99.90;;;;;;4957530;28;20466;-77
2021/07/28 10:16:41;;;;;;;6.70;3.80;;;23.20;99.90;;;;;;4955971;29;20468;-80
2021/07/28 10:19:06;;;;;;;6.57;4.90;;;23.10;99.90;;;;;;4956205;29;20424;-79
2021/07/28 10:21:36;;;;;;;5.03;4.63;;;22.90;99.90;;;;;;4956582;28;20189;-79
2021/07/28 10:24:04;;;;;;;6.03;4.57;;;22.90;99.90;;;;;;4956782;29;20184;-79
2021/07/28 10:26:34;;;;;;;6.13;5.60;;;22.80;99.90;;;;;;4952524;28;20408;-80
2021/07/28 10:29:00;;;;;;;6.10;4.83;;;22.80;99.90;;;;;;4951914;29;20803;-78
2021/07/28 10:31:26;;;;;;;4.60;4.30;;;22.60;99.90;;;;;;4955615;28;20452;-78
2021/07/28 10:33:56;;;;;;;7.70;4.50;;;22.60;99.90;;;;;;4955831;28;20549;-79
2021/07/28 10:36:42;;;;;;;5.63;4.83;;;22.30;99.90;;;;;;4956647;29;20153;-79
2021/07/28 10:39:08;;;;;;;7.40;4.90;;;22.30;99.90;;;;;;4956129;29;20832;-76
2021/07/28 10:41:41;;;;;;;8.33;5.60;;;22.20;99.90;;;;;;4956931;28;20437;-78
2021/07/28 10:44:16;;;;;;;5.43;4.93;;;22.30;99.90;;;;;;4954717;29;20184;-72
2021/07/28 10:47:12;;;;;;;4.93;4.53;;;22.30;99.90;;;;;;4935350;29;20926;-73
2021/07/28 10:49:38;;;;;;;4.90;4.50;;;22.20;99.90;;;;;;4935670;29;20445;-72
2021/07/28 10:52:05;;;;;;;4.50;4.20;;;22.20;99.90;;;;;;4935853;29;20437;-73
2021/07/28 10:54:49;;;;;;;7.47;4.60;;;22.20;99.90;;;;;;4935705;29;20457;-73
2021/07/28 10:57:43;;;;;;;5.43;4.93;;;22.80;99.90;;;;;;4936171;29;20409;-75
2021/07/28 11:00:11;;;;;;;4.33;3.93;;;23.70;99.90;;;;;;4935189;29;20859;-73
2021/07/28 11:02:52;;;;;;;3.90;3.60;;;24.20;99.90;;;;;;4936306;29;20504;-72
2021/07/28 11:05:22;;;;;;;7.60;4.40;;;24.00;99.90;;;;;;4935981;29;20417;-72
2021/07/28 11:08:03;;;;;;;6.60;4.57;;;24.20;99.90;;;;;;4935351;29;20413;-73
2021/07/28 11:10:30;;;;;;;5.43;4.30;;;24.20;99.90;;;;;;4935245;29;20405;-76
2021/07/28 11:12:56;;;;;;;4.60;3.97;;;24.20;99.90;;;;;;4935144;29;20475;-71
2021/07/28 11:15:22;;;;;;;4.57;4.13;;;23.80;99.90;;;;;;4935956;29;20413;-75
2021/07/28 11:17:55;;;;;;;5.57;4.43;;;23.60;99.90;;;;;;4935717;29;20418;-75
2021/07/28 11:20:39;;;;;;;4.97;4.50;;;24.00;99.90;;;;;;4935564;29;20217;-73
2021/07/28 11:23:29;;;;;;;4.07;3.77;;;24.40;99.90;;;;;;4935669;29;20428;-76
2021/07/28 11:25:56;;;;;;;7.50;3.97;;;24.90;99.90;;;;;;4935836;29;20420;-72
2021/07/28 11:28:23;;;;;;;4.53;4.13;;;25.20;99.90;;;;;;4935447;29;20417;-75
2021/07/28 11:30:59;;;;;;;4.43;4.03;;;25.40;99.90;;;;;;4935124;29;20489;-75
2021/07/28 11:33:27;;;;;;;4.93;4.47;;;25.60;99.90;;;;;;4935259;29;20849;-73
2021/07/28 11:35:54;;;;;;;5.23;4.13;;;26.00;99.90;;;;;;4935546;29;20414;-72
2021/07/28 11:38:20;;;;;;;4.53;4.10;;;26.00;99.90;;;;;;4934263;29;20414;-73
2021/07/28 11:40:58;;;;;;;4.60;4.07;;;25.70;99.90;;;;;;4934924;29;20978;-75
2021/07/28 11:43:26;;;;;;;5.47;4.97;;;25.20;99.90;;;;;;4934126;29;20429;-75
2021/07/28 11:45:56;;;;;;;4.53;4.13;;;24.90;99.90;;;;;;4934884;29;20504;-72
2021/07/28 11:48:28;;;;;;;5.77;4.67;;;24.90;99.90;;;;;;4934257;29;20413;-75
2021/07/28 11:50:54;;;;;;;4.37;4.07;;;24.90;99.90;;;;;;4933930;29;20417;-72
2021/07/28 11:53:24;;;;;;;4.90;4.50;;;25.10;99.90;;;;;;4934014;29;20461;-74
2021/07/28 11:55:49;;;;;;;5.63;3.80;;;25.10;99.90;;;;;;4935027;29;20264;-75
2021/07/28 11:58:16;;;;;;;4.80;4.20;;;25.10;99.90;;;;;;4934644;29;20873;-74
2021/07/28 12:00:41;;;;;;;5.03;3.93;;;24.60;99.90;;;;;;4934500;29;20237;-79
2021/07/28 12:03:31;;;;;;;4.83;4.43;;;24.50;99.90;;;;;;4934026;29;20931;-77
2021/07/28 12:06:04;;;;;;;4.37;3.97;;;24.40;99.90;;;;;;4934049;29;20432;-78
2021/07/28 12:08:36;;;;;;;5.30;4.60;;;24.40;99.90;;;;;;4935734;29;20496;-78
2021/07/28 12:11:07;;;;;;;4.07;3.77;;;24.50;99.90;;;;;;4935451;29;20437;-78
2021/07/28 12:13:47;;;;;;;4.10;3.80;;;24.50;99.90;;;;;;4933532;29;20469;-76
2021/07/28 12:16:13;;;;;;;5.57;3.60;;;24.80;99.90;;;;;;4935223;29;20402;-77
2021/07/28 12:18:46;;;;;;;15.60;5.37;;;24.60;99.90;;;;;;4934919;29;20425;-75
2021/07/28 12:21:13;;;;;;;4.13;3.83;;;24.90;99.90;;;;;;4934829;29;20425;-77
2021/07/28 12:23:52;;;;;;;5.30;3.70;;;25.20;99.90;;;;;;4934597;29;20424;-76
2021/07/28 12:26:45;;;;;;;4.43;3.93;;;25.40;99.90;;;;;;4935040;29;20950;-77
2021/07/28 12:29:10;;;;;;;3.90;3.60;;;25.40;99.90;;;;;;4933974;29;20429;-77
2021/07/28 12:31:36;;;;;;;7.00;4.30;;;24.90;99.90;;;;;;4934644;29;20876;-77
2021/07/28 12:34:20;;;;;;;4.13;3.73;;;24.60;99.90;;;;;;4934844;29;20209;-77
2021/07/28 12:36:46;;;;;;;4.17;3.57;;;24.70;99.90;;;;;;4934905;29;20201;-77
2021/07/28 12:39:12;;;;;;;5.77;3.97;;;24.60;99.90;;;;;;4934574;29;20450;-77
2021/07/28 12:41:38;;;;;;;4.70;4.33;;;24.50;99.90;;;;;;4934217;29;20762;-76
2021/07/28 12:44:03;;;;;;;3.80;3.50;;;24.40;99.90;;;;;;4934510;29;20196;-77
2021/07/28 12:46:29;;;;;;;4.63;4.23;;;24.40;99.90;;;;;;4934661;29;20778;-77
2021/07/28 12:48:54;;;;;;;4.33;3.90;;;24.50;99.90;;;;;;4934730;29;20189;-76
2021/07/28 12:51:23;;;;;;;7.00;4.70;;;24.30;99.90;;;;;;4934634;29;20741;-78
2021/07/28 12:53:49;;;;;;;4.40;3.97;;;24.40;99.90;;;;;;4934421;29;20218;-79
2021/07/28 12:56:15;;;;;;;3.53;3.23;;;24.40;99.90;;;;;;4934790;29;20965;-78
2021/07/28 12:58:40;;;;;;;4.20;3.83;;;24.80;99.90;;;;;;4934436;29;20197;-79
2021/07/28 13:01:06;;;;;;;6.57;3.57;;;25.10;99.90;;;;;;4934738;29;20653;-79
2021/07/28 13:03:35;;;;;;;3.90;3.60;;;25.30;99.90;;;;;;4934105;29;20523;-79
2021/07/28 13:06:08;;;;;;;3.83;3.57;;;25.40;99.90;;;;;;4934530;29;20205;-78
2021/07/28 13:08:33;;;;;;;4.73;4.23;;;25.40;99.90;;;;;;4933970;29;20422;-78
2021/07/28 13:10:59;;;;;;;4.60;4.20;;;25.50;99.90;;;;;;4934639;29;20429;-79
2021/07/28 13:13:25;;;;;;;4.57;4.17;;;25.40;99.90;;;;;;4934475;29;20201;-77
2021/07/28 13:15:51;;;;;;;4.10;3.80;;;25.30;99.90;;;;;;4934599;29;20180;-79
2021/07/28 13:18:17;;;;;;;6.60;4.20;;;25.30;99.90;;;;;;4936002;29;20571;-78
2021/07/28 13:20:43;;;;;;;3.73;3.30;;;25.30;99.90;;;;;;4938286;29;20419;-79
2021/07/28 13:23:11;;;;;;;3.97;3.63;;;25.50;99.90;;;;;;4938500;29;20429;-77
2021/07/28 13:25:37;;;;;;;5.60;4.07;;;25.50;99.90;;;;;;4937343;29;20428;-78
2021/07/28 13:28:03;;;;;;;4.17;3.77;;;25.50;99.90;;;;;;4938435;29;20417;-78
2021/07/28 13:30:29;;;;;;;4.13;3.47;;;25.50;99.90;;;;;;4938162;29;20173;-78
2021/07/28 13:32:54;;;;;;;3.97;3.53;;;25.60;99.90;;;;;;4937900;29;20523;-78
2021/07/28 13:35:20;;;;;;;10.63;4.00;;;25.50;99.90;;;;;;4938080;29;20180;-76
2021/07/28 13:37:47;;;;;;;4.23;3.80;;;25.50;99.90;;;;;;4937960;29;20173;-78
2021/07/28 13:40:13;;;;;;;4.70;4.00;;;25.50;99.90;;;;;;4938368;29;20585;-78
2021/07/28 13:42:43;;;;;;;4.70;4.30;;;25.30;99.90;;;;;;4936154;29;20974;-78
2021/07/28 13:45:11;;;;;;;4.73;3.90;;;25.10;99.90;;;;;;4938515;29;20422;-77
2021/07/28 13:47:40;;;;;;;6.90;3.80;;;25.10;99.90;;;;;;4936605;29;20428;-78
2021/07/28 13:50:07;;;;;;;4.20;3.90;;;25.30;99.90;;;;;;4937918;29;20409;-78
2021/07/28 13:52:33;;;;;;;9.73;4.20;;;25.30;99.90;;;;;;4937471;29;20443;-78
2021/07/28 13:54:58;;;;;;;3.77;3.47;;;25.40;99.90;;;;;;4938013;29;20421;-78
2021/07/28 13:57:24;;;;;;;5.27;3.97;;;25.40;99.90;;;;;;4937764;29;20195;-76
2021/07/28 13:59:49;;;;;;;4.13;3.73;;;25.10;99.90;;;;;;4937659;29;20714;-76
2021/07/28 14:02:15;;;;;;;11.03;5.40;;;24.90;99.90;;;;;;4937928;29;20201;-78
2021/07/28 14:04:42;;;;;;;4.50;4.10;;;24.80;99.90;;;;;;4937486;29;20245;-77
2021/07/28 14:07:08;;;;;;;4.07;3.70;;;24.80;99.90;;;;;;4937922;29;20455;-77
2021/07/28 14:09:34;;;;;;;5.40;4.50;;;24.60;99.90;;;;;;4937079;29;20435;-77
2021/07/28 14:12:04;;;;;;;5.70;3.80;;;24.60;99.90;;;;;;4937279;29;20437;-79
2021/07/28 14:14:32;;;;;;;4.83;4.40;;;24.50;99.90;;;;;;4937527;29;20343;-78
2021/07/28 14:17:00;;;;;;;4.10;3.80;;;24.50;99.90;;;;;;4935928;29;20795;-78
2021/07/28 14:19:25;;;;;;;7.07;3.90;;;24.60;99.90;;;;;;4937073;29;20409;-78
2021/07/28 14:21:51;;;;;;;6.17;4.47;;;24.50;99.90;;;;;;4933819;29;20966;-76
2021/07/28 14:24:16;;;;;;;3.73;3.33;;;24.60;99.90;;;;;;4936498;29;20193;-76
2021/07/28 14:26:42;;;;;;;4.90;3.77;;;24.70;99.90;;;;;;4929291;29;20204;-76
2021/07/28 14:29:09;;;;;;;4.93;4.23;;;24.80;99.90;;;;;;4917276;29;20186;-75
2021/07/28 14:31:34;;;;;;;4.17;3.43;;;24.90;99.90;;;;;;4917177;29;20253;-76
2021/07/28 14:34:00;;;;;;;10.10;3.87;;;25.00;99.90;;;;;;4918653;29;20461;-76
2021/07/28 14:36:25;;;;;;;3.60;3.40;;;25.00;99.90;;;;;;4917860;29;20648;-79
2021/07/28 14:38:51;;;;;;;5.73;3.83;;;24.90;99.90;;;;;;4918007;29;20598;-78
2021/07/28 14:41:21;;;;;;;4.97;4.47;;;24.70;99.90;;;;;;4917487;29;20249;-78
2021/07/28 14:43:49;;;;;;;4.60;4.20;;;24.70;99.90;;;;;;4917142;29;20183;-78
2021/07/28 14:46:17;;;;;;;5.80;4.60;;;24.50;99.90;;;;;;4916200;29;20430;-76
2021/07/28 14:48:42;;;;;;;6.07;4.37;;;24.30;99.90;;;;;;4917003;29;20916;-78
2021/07/28 14:51:13;;;;;;;5.37;4.97;;;24.30;99.90;;;;;;4916914;29;20441;-79
2021/07/28 14:53:39;;;;;;;4.43;4.03;;;24.30;99.90;;;;;;4917125;29;20222;-77
2021/07/28 14:56:05;;;;;;;4.03;3.73;;;24.40;99.90;;;;;;4917188;29;20422;-78
2021/07/28 14:58:30;;;;;;;3.60;3.30;;;24.50;99.90;;;;;;4917270;29;20186;-78
2021/07/28 15:00:56;;;;;;;4.30;3.90;;;24.50;99.90;;;;;;4916943;29;20178;-76
2021/07/28 15:03:21;;;;;;;3.80;3.50;;;24.40;99.90;;;;;;4917018;29;20182;-79
2021/07/28 15:05:47;;;;;;;7.13;3.57;;;24.30;99.90;;;;;;4916852;29;20182;-78
2021/07/28 15:08:12;;;;;;;3.40;3.10;;;24.00;99.90;;;;;;4917486;29;20189;-77
2021/07/28 15:10:38;;;;;;;3.93;3.37;;;23.90;99.90;;;;;;4916653;29;20675;-75
2021/07/28 15:13:04;;;;;;;4.03;3.73;;;23.90;99.90;;;;;;4916641;29;20198;-78
2021/07/28 15:15:30;;;;;;;9.10;3.53;;;23.80;99.90;;;;;;4916503;29;20418;-79
2021/07/28 15:17:56;;;;;;;4.80;3.30;;;23.80;99.90;;;;;;4916985;29;20198;-77
2021/07/28 15:20:22;;;;;;;3.10;2.90;;;23.80;99.90;;;;;;4917083;29;20411;-75
2021/07/28 15:22:47;;;;;;;3.87;2.93;;;23.90;99.90;;;;;;4915665;29;20739;-74
2021/07/28 15:25:13;;;;;;;5.83;2.80;;;24.10;99.90;;;;;;4917325;29;20659;-76
2021/07/28 15:27:38;;;;;;;4.10;2.80;;;24.00;99.90;;;;;;4917039;29;20192;-74
2021/07/28 15:30:05;;;;;;;3.40;3.10;;;24.10;99.90;;;;;;4916700;29;20250;-76
2021/07/28 15:32:30;;;;;;;3.70;3.40;;;24.00;99.90;;;;;;4915353;29;20312;-79
2021/07/28 15:34:56;;;;;;;3.37;3.07;;;23.90;99.90;;;;;;4916576;29;20498;-76
2021/07/28 15:37:21;;;;;;;3.90;3.50;;;23.80;99.90;;;;;;4916612;29;20196;-78
2021/07/28 15:40:03;;;;;;;3.33;3.13;;;23.60;99.90;;;;;;4916447;29;20178;-78
2021/07/28 15:42:30;;;;;;;6.10;3.60;;;23.50;99.90;;;;;;4915496;29;20221;-78
2021/07/28 15:44:55;;;;;;;4.83;4.43;;;23.60;99.90;;;;;;4916289;29;20899;-76
2021/07/28 15:47:23;;;;;;;4.10;3.70;;;23.50;99.90;;;;;;4915877;29;20470;-77
2021/07/28 15:49:49;;;;;;;4.27;3.93;;;23.50;99.90;;;;;;4916371;29;20240;-76
2021/07/28 15:52:15;;;;;;;3.83;3.50;;;23.60;99.90;;;;;;4916477;29;20566;-76
2021/07/28 15:54:41;;;;;;;3.53;3.30;;;23.70;99.90;;;;;;4915996;29;20309;-76
2021/07/28 15:57:06;;;;;;;8.30;3.20;;;23.60;99.90;;;;;;4916392;29;20513;-76
2021/07/28 15:59:32;;;;;;;3.83;3.50;;;23.50;99.90;;;;;;4916625;29;20192;-77
2021/07/28 16:01:58;;;;;;;3.97;3.67;;;23.50;99.90;;;;;;4916220;29;20194;-78
2021/07/28 16:04:23;;;;;;;3.87;3.57;;;23.50;99.90;;;;;;4916551;29;20211;-78
2021/07/28 16:06:49;;;;;;;5.03;4.03;;;23.60;99.90;;;;;;4916791;29;20184;-78
2021/07/28 16:09:14;;;;;;;4.70;4.20;;;23.50;99.90;;;;;;4916445;29;20234;-76
2021/07/28 16:11:40;;;;;;;4.80;3.50;;;23.60;99.90;;;;;;4916577;29;20210;-77
2021/07/28 16:14:28;;;;;;;4.07;3.77;;;23.60;99.90;;;;;;4916338;29;20210;-78
2021/07/28 16:16:54;;;;;;;3.27;3.07;;;23.80;99.90;;;;;;4916553;29;20245;-77
2021/07/28 16:19:21;;;;;;;3.10;2.90;;;23.90;99.90;;;;;;4916402;29;20422;-78
2021/07/28 16:21:47;;;;;;;5.13;4.10;;;24.00;99.90;;;;;;4914728;29;20201;-78
2021/07/28 16:24:28;;;;;;;6.03;4.27;;;24.00;99.90;;;;;;4915939;29;20908;-77
2021/07/28 16:26:53;;;;;;;5.60;3.93;;;23.90;99.90;;;;;;4915709;29;20466;-77
2021/07/28 16:29:19;;;;;;;3.50;3.20;;;23.80;99.90;;;;;;4915397;29;20414;-77
2021/07/28 16:31:44;;;;;;;4.63;4.03;;;23.80;99.90;;;;;;4914909;29;20232;-78
2021/07/28 16:34:10;;;;;;;7.43;3.70;;;23.70;99.90;;;;;;4913822;29;20636;-78
2021/07/28 16:36:36;;;;;;;5.37;4.30;;;23.60;99.90;;;;;;4915541;29;20190;-79
2021/07/28 16:39:03;;;;;;;3.97;3.60;;;23.50;99.90;;;;;;4914537;29;20272;-77
2021/07/28 16:41:28;;;;;;;8.00;4.83;;;23.40;99.90;;;;;;4914442;29;20437;-78
2021/07/28 16:43:54;;;;;;;4.93;3.80;;;23.30;99.90;;;;;;4915195;29;20426;-76
2021/07/28 16:46:19;;;;;;;4.43;3.77;;;23.20;99.90;;;;;;4915726;29;20181;-79
2021/07/28 16:48:45;;;;;;;4.57;4.10;;;23.20;99.90;;;;;;4915296;29;20190;-78
2021/07/28 16:51:11;;;;;;;3.97;3.67;;;23.10;99.90;;;;;;4914349;29;20217;-77
2021/07/28 16:53:37;;;;;;;6.00;4.20;;;23.10;99.90;;;;;;4914886;29;20312;-76
2021/07/28 16:56:02;;;;;;;3.97;3.70;;;23.00;99.90;;;;;;4915530;29;20510;-76
2021/07/28 16:58:28;;;;;;;4.43;3.80;;;22.90;99.90;;;;;;4915171;29;20179;-77
2021/07/28 17:00:53;;;;;;;4.50;4.03;;;22.80;99.90;;;;;;4915198;29;20261;-76
2021/07/28 17:03:20;;;;;;;4.83;4.23;;;22.90;99.90;;;;;;4915152;29;20190;-77
2021/07/28 17:05:45;;;;;;;5.47;4.87;;;22.90;99.90;;;;;;4914873;29;20205;-78
2021/07/28 17:08:11;;;;;;;4.30;4.00;;;22.80;99.90;;;;;;4915525;29;20432;-78
2021/07/28 17:10:36;;;;;;;4.23;2.93;;;22.80;99.90;;;;;;4914866;29;20266;-80
2021/07/28 17:13:02;;;;;;;3.00;2.73;;;22.70;99.90;;;;;;4915332;29;20220;-77
2021/07/28 17:15:28;;;;;;;1.77;1.63;;;22.40;99.90;;;;;;4915359;29;20185;-79
2021/07/28 17:17:57;;;;;;;2.20;1.77;;;21.90;99.90;;;;;;4915535;29;20237;-78
2021/07/28 17:20:23;;;;;;;2.80;1.60;;;21.70;99.90;;;;;;4915760;29;20291;-79